sensor_id;sensor_type;location;lat;lon;timestamp;P1;durP1;ratioP1;P2;durP2;ratioP2
77430;SDS011;66498;48.564;19.272;2023-07-08T00:25:08;6.60;;;4.53;;
77430;SDS011;66498;48.564;19.272;2023-07-08T00:27:58;6.38;;;4.32;;
77430;SDS011;66498;48.564;19.272;2023-07-08T00:31:31;5.65;;;4.50;;
77430;SDS011;66498;48.564;19.272;2023-07-08T00:35:00;7.20;;;4.60;;
77430;SDS011;66498;48.564;19.272;2023-07-08T01:00:17;7.80;;;5.30;;
77430;SDS011;66498;48.564;19.272;2023-07-08T01:22:43;5.75;;;4.40;;
77430;SDS011;66498;48.564;19.272;2023-07-08T01:25:17;6.05;;;4.40;;
77430;SDS011;66498;48.564;19.272;2023-07-08T01:27:49;7.53;;;4.43;;
77430;SDS011;66498;48.564;19.272;2023-07-08T01:31:01;11.05;;;5.32;;
77430;SDS011;66498;48.564;19.272;2023-07-08T01:44:32;8.05;;;5.72;;
77430;SDS011;66498;48.564;19.272;2023-07-08T01:47:20;7.97;;;5.80;;
77430;SDS011;66498;48.564;19.272;2023-07-08T01:49:59;8.00;;;5.60;;
77430;SDS011;66498;48.564;19.272;2023-07-08T01:56:57;9.15;;;5.80;;
77430;SDS011;66498;48.564;19.272;2023-07-08T01:59:41;12.02;;;5.78;;
77430;SDS011;66498;48.564;19.272;2023-07-08T02:02:11;7.50;;;5.57;;
77430;SDS011;66498;48.564;19.272;2023-07-08T02:04:38;11.27;;;5.60;;
77430;SDS011;66498;48.564;19.272;2023-07-08T02:07:05;7.18;;;5.40;;
77430;SDS011;66498;48.564;19.272;2023-07-08T02:09:57;7.15;;;5.40;;
77430;SDS011;66498;48.564;19.272;2023-07-08T02:12:33;9.90;;;5.38;;
77430;SDS011;66498;48.564;19.272;2023-07-08T02:15:11;6.18;;;4.95;;
77430;SDS011;66498;48.564;19.272;2023-07-08T02:17:43;7.55;;;4.95;;
77430;SDS011;66498;48.564;19.272;2023-07-08T02:20:22;8.40;;;5.20;;
77430;SDS011;66498;48.564;19.272;2023-07-08T02:23:04;7.35;;;4.90;;
77430;SDS011;66498;48.564;19.272;2023-07-08T02:25:55;7.13;;;4.78;;
77430;SDS011;66498;48.564;19.272;2023-07-08T02:28:21;8.32;;;4.82;;
77430;SDS011;66498;48.564;19.272;2023-07-08T02:30:46;8.30;;;5.03;;
77430;SDS011;66498;48.564;19.272;2023-07-08T02:33:32;6.97;;;4.60;;
77430;SDS011;66498;48.564;19.272;2023-07-08T02:36:13;6.70;;;4.63;;
77430;SDS011;66498;48.564;19.272;2023-07-08T02:38:48;6.97;;;4.50;;
77430;SDS011;66498;48.564;19.272;2023-07-08T02:41:18;8.50;;;5.18;;
77430;SDS011;66498;48.564;19.272;2023-07-08T02:43:44;7.95;;;5.63;;
77430;SDS011;66498;48.564;19.272;2023-07-08T02:46:09;8.32;;;5.90;;
77430;SDS011;66498;48.564;19.272;2023-07-08T02:48:34;7.30;;;5.38;;
77430;SDS011;66498;48.564;19.272;2023-07-08T02:51:04;8.57;;;5.28;;
77430;SDS011;66498;48.564;19.272;2023-07-08T02:53:30;7.00;;;4.63;;
77430;SDS011;66498;48.564;19.272;2023-07-08T02:55:57;7.22;;;4.80;;
77430;SDS011;66498;48.564;19.272;2023-07-08T02:58:26;6.32;;;4.78;;
77430;SDS011;66498;48.564;19.272;2023-07-08T03:01:16;7.50;;;4.75;;
77430;SDS011;66498;48.564;19.272;2023-07-08T03:03:52;6.18;;;5.00;;
77430;SDS011;66498;48.564;19.272;2023-07-08T03:06:49;8.02;;;4.68;;
77430;SDS011;66498;48.564;19.272;2023-07-08T03:09:48;5.85;;;4.70;;
77430;SDS011;66498;48.564;19.272;2023-07-08T03:12:29;8.93;;;5.05;;
77430;SDS011;66498;48.564;19.272;2023-07-08T03:15:03;6.45;;;4.95;;
77430;SDS011;66498;48.564;19.272;2023-07-08T03:17:44;8.45;;;4.60;;
77430;SDS011;66498;48.564;19.272;2023-07-08T03:20:39;7.97;;;4.53;;
77430;SDS011;66498;48.564;19.272;2023-07-08T03:24:13;7.75;;;4.53;;
77430;SDS011;66498;48.564;19.272;2023-07-08T03:27:36;7.05;;;4.72;;
77430;SDS011;66498;48.564;19.272;2023-07-08T03:30:22;7.90;;;4.68;;
77430;SDS011;66498;48.564;19.272;2023-07-08T03:33:05;8.05;;;5.10;;
77430;SDS011;66498;48.564;19.272;2023-07-08T03:35:47;6.00;;;4.60;;
77430;SDS011;66498;48.564;19.272;2023-07-08T03:38:51;8.95;;;4.80;;
77430;SDS011;66498;48.564;19.272;2023-07-08T03:41:20;7.82;;;5.00;;
77430;SDS011;66498;48.564;19.272;2023-07-08T03:43:46;5.95;;;4.70;;
77430;SDS011;66498;48.564;19.272;2023-07-08T03:46:13;7.05;;;4.70;;
77430;SDS011;66498;48.564;19.272;2023-07-08T03:48:40;6.32;;;4.95;;
77430;SDS011;66498;48.564;19.272;2023-07-08T03:51:20;8.13;;;5.38;;
77430;SDS011;66498;48.564;19.272;2023-07-08T03:54:02;7.60;;;5.53;;
77430;SDS011;66498;48.564;19.272;2023-07-08T03:56:27;7.60;;;5.40;;
77430;SDS011;66498;48.564;19.272;2023-07-08T03:58:56;6.95;;;4.93;;
77430;SDS011;66498;48.564;19.272;2023-07-08T04:01:24;6.75;;;5.28;;
77430;SDS011;66498;48.564;19.272;2023-07-08T04:03:57;7.43;;;5.45;;
77430;SDS011;66498;48.564;19.272;2023-07-08T04:06:29;10.15;;;5.47;;
77430;SDS011;66498;48.564;19.272;2023-07-08T04:09:00;8.25;;;5.03;;
77430;SDS011;66498;48.564;19.272;2023-07-08T04:11:49;8.88;;;5.30;;
77430;SDS011;66498;48.564;19.272;2023-07-08T04:14:19;7.95;;;5.75;;
77430;SDS011;66498;48.564;19.272;2023-07-08T04:16:48;7.45;;;5.50;;
77430;SDS011;66498;48.564;19.272;2023-07-08T04:19:17;8.73;;;5.60;;
77430;SDS011;66498;48.564;19.272;2023-07-08T04:21:53;11.10;;;5.43;;
77430;SDS011;66498;48.564;19.272;2023-07-08T04:24:22;7.18;;;5.53;;
77430;SDS011;66498;48.564;19.272;2023-07-08T04:26:49;8.98;;;6.28;;
77430;SDS011;66498;48.564;19.272;2023-07-08T04:29:20;9.13;;;5.93;;
77430;SDS011;66498;48.564;19.272;2023-07-08T04:31:49;10.20;;;5.80;;
77430;SDS011;66498;48.564;19.272;2023-07-08T04:34:19;8.50;;;5.97;;
77430;SDS011;66498;48.564;19.272;2023-07-08T04:36:56;9.00;;;6.32;;
77430;SDS011;66498;48.564;19.272;2023-07-08T04:39:23;8.57;;;6.57;;
77430;SDS011;66498;48.564;19.272;2023-07-08T04:41:49;7.85;;;6.35;;
77430;SDS011;66498;48.564;19.272;2023-07-08T04:44:16;9.02;;;6.55;;
77430;SDS011;66498;48.564;19.272;2023-07-08T04:46:49;9.00;;;7.03;;
77430;SDS011;66498;48.564;19.272;2023-07-08T04:49:23;10.45;;;6.60;;
77430;SDS011;66498;48.564;19.272;2023-07-08T04:51:49;8.82;;;6.18;;
77430;SDS011;66498;48.564;19.272;2023-07-08T04:54:16;9.55;;;6.63;;
77430;SDS011;66498;48.564;19.272;2023-07-08T04:56:46;8.25;;;6.50;;
77430;SDS011;66498;48.564;19.272;2023-07-08T04:59:22;9.38;;;6.65;;
77430;SDS011;66498;48.564;19.272;2023-07-08T05:02:08;11.07;;;7.28;;
77430;SDS011;66498;48.564;19.272;2023-07-08T05:04:42;7.22;;;6.07;;
77430;SDS011;66498;48.564;19.272;2023-07-08T05:07:21;9.95;;;7.00;;
77430;SDS011;66498;48.564;19.272;2023-07-08T05:09:55;9.23;;;6.60;;
77430;SDS011;66498;48.564;19.272;2023-07-08T05:12:22;8.98;;;6.90;;
77430;SDS011;66498;48.564;19.272;2023-07-08T05:14:47;8.13;;;6.47;;
77430;SDS011;66498;48.564;19.272;2023-07-08T05:17:15;10.18;;;6.97;;
77430;SDS011;66498;48.564;19.272;2023-07-08T05:19:41;9.52;;;6.45;;
77430;SDS011;66498;48.564;19.272;2023-07-08T05:22:08;8.30;;;6.60;;
77430;SDS011;66498;48.564;19.272;2023-07-08T05:24:34;8.73;;;6.47;;
77430;SDS011;66498;48.564;19.272;2023-07-08T05:27:00;9.57;;;6.18;;
77430;SDS011;66498;48.564;19.272;2023-07-08T05:29:34;9.70;;;6.53;;
77430;SDS011;66498;48.564;19.272;2023-07-08T05:32:11;10.55;;;6.05;;
77430;SDS011;66498;48.564;19.272;2023-07-08T05:34:37;8.95;;;5.50;;
77430;SDS011;66498;48.564;19.272;2023-07-08T05:37:02;8.27;;;5.53;;
77430;SDS011;66498;48.564;19.272;2023-07-08T05:39:29;8.70;;;6.40;;
77430;SDS011;66498;48.564;19.272;2023-07-08T05:41:55;8.60;;;5.50;;
77430;SDS011;66498;48.564;19.272;2023-07-08T05:44:21;9.25;;;5.47;;
77430;SDS011;66498;48.564;19.272;2023-07-08T05:46:47;10.32;;;5.80;;
77430;SDS011;66498;48.564;19.272;2023-07-08T05:49:13;6.15;;;4.97;;
77430;SDS011;66498;48.564;19.272;2023-07-08T05:51:38;7.95;;;4.93;;
77430;SDS011;66498;48.564;19.272;2023-07-08T05:54:04;10.82;;;5.22;;
77430;SDS011;66498;48.564;19.272;2023-07-08T05:56:29;8.50;;;5.53;;
77430;SDS011;66498;48.564;19.272;2023-07-08T05:58:55;7.72;;;5.03;;
77430;SDS011;66498;48.564;19.272;2023-07-08T06:01:21;9.75;;;5.50;;
77430;SDS011;66498;48.564;19.272;2023-07-08T06:03:47;8.18;;;5.30;;
77430;SDS011;66498;48.564;19.272;2023-07-08T06:06:13;7.50;;;5.22;;
77430;SDS011;66498;48.564;19.272;2023-07-08T06:08:38;8.05;;;5.68;;
77430;SDS011;66498;48.564;19.272;2023-07-08T06:11:04;8.75;;;5.38;;
77430;SDS011;66498;48.564;19.272;2023-07-08T06:13:29;7.05;;;5.10;;
77430;SDS011;66498;48.564;19.272;2023-07-08T06:15:55;8.07;;;5.63;;
77430;SDS011;66498;48.564;19.272;2023-07-08T06:18:20;11.00;;;5.07;;
77430;SDS011;66498;48.564;19.272;2023-07-08T06:20:53;8.98;;;5.45;;
77430;SDS011;66498;48.564;19.272;2023-07-08T06:23:19;8.20;;;5.38;;
77430;SDS011;66498;48.564;19.272;2023-07-08T06:25:45;7.47;;;6.07;;
77430;SDS011;66498;48.564;19.272;2023-07-08T06:28:10;8.25;;;5.18;;
77430;SDS011;66498;48.564;19.272;2023-07-08T06:30:36;9.48;;;5.72;;
77430;SDS011;66498;48.564;19.272;2023-07-08T06:33:02;14.93;;;5.72;;
77430;SDS011;66498;48.564;19.272;2023-07-08T06:35:28;11.43;;;5.65;;
77430;SDS011;66498;48.564;19.272;2023-07-08T06:37:54;8.70;;;5.22;;
77430;SDS011;66498;48.564;19.272;2023-07-08T06:40:20;6.70;;;5.20;;
77430;SDS011;66498;48.564;19.272;2023-07-08T06:42:45;8.02;;;4.70;;
77430;SDS011;66498;48.564;19.272;2023-07-08T06:45:11;6.45;;;4.85;;
77430;SDS011;66498;48.564;19.272;2023-07-08T06:47:37;6.05;;;4.45;;
77430;SDS011;66498;48.564;19.272;2023-07-08T06:50:03;6.68;;;4.82;;
77430;SDS011;66498;48.564;19.272;2023-07-08T06:52:29;7.35;;;5.05;;
77430;SDS011;66498;48.564;19.272;2023-07-08T06:55:00;9.13;;;5.07;;
77430;SDS011;66498;48.564;19.272;2023-07-08T06:57:27;6.97;;;4.53;;
77430;SDS011;66498;48.564;19.272;2023-07-08T06:59:53;8.30;;;4.50;;
77430;SDS011;66498;48.564;19.272;2023-07-08T07:02:19;6.60;;;4.43;;
77430;SDS011;66498;48.564;19.272;2023-07-08T07:04:45;6.63;;;4.10;;
77430;SDS011;66498;48.564;19.272;2023-07-08T07:07:12;5.65;;;3.75;;
77430;SDS011;66498;48.564;19.272;2023-07-08T07:09:38;5.30;;;3.88;;
77430;SDS011;66498;48.564;19.272;2023-07-08T07:12:05;6.47;;;4.20;;
77430;SDS011;66498;48.564;19.272;2023-07-08T07:14:32;6.28;;;4.28;;
77430;SDS011;66498;48.564;19.272;2023-07-08T07:16:57;7.50;;;4.35;;
77430;SDS011;66498;48.564;19.272;2023-07-08T07:19:23;6.68;;;4.00;;
77430;SDS011;66498;48.564;19.272;2023-07-08T07:21:48;7.70;;;4.22;;
77430;SDS011;66498;48.564;19.272;2023-07-08T07:24:14;6.72;;;3.70;;
77430;SDS011;66498;48.564;19.272;2023-07-08T07:26:40;5.78;;;3.90;;
77430;SDS011;66498;48.564;19.272;2023-07-08T07:29:05;5.43;;;3.90;;
77430;SDS011;66498;48.564;19.272;2023-07-08T07:31:31;4.90;;;3.42;;
77430;SDS011;66498;48.564;19.272;2023-07-08T07:33:58;6.13;;;3.75;;
77430;SDS011;66498;48.564;19.272;2023-07-08T07:36:25;6.50;;;3.40;;
77430;SDS011;66498;48.564;19.272;2023-07-08T07:38:51;5.78;;;3.80;;
77430;SDS011;66498;48.564;19.272;2023-07-08T07:41:16;6.40;;;3.47;;
77430;SDS011;66498;48.564;19.272;2023-07-08T07:43:42;9.13;;;3.75;;
77430;SDS011;66498;48.564;19.272;2023-07-08T07:46:08;15.70;;;5.03;;
77430;SDS011;66498;48.564;19.272;2023-07-08T07:48:36;7.40;;;4.13;;
77430;SDS011;66498;48.564;19.272;2023-07-08T07:51:02;5.72;;;4.10;;
77430;SDS011;66498;48.564;19.272;2023-07-08T07:53:28;8.15;;;3.72;;
77430;SDS011;66498;48.564;19.272;2023-07-08T07:55:57;6.68;;;3.95;;
77430;SDS011;66498;48.564;19.272;2023-07-08T07:58:23;6.13;;;4.05;;
77430;SDS011;66498;48.564;19.272;2023-07-08T08:00:49;5.03;;;3.78;;
77430;SDS011;66498;48.564;19.272;2023-07-08T08:03:15;7.00;;;3.97;;
77430;SDS011;66498;48.564;19.272;2023-07-08T08:05:41;6.05;;;4.20;;
77430;SDS011;66498;48.564;19.272;2023-07-08T08:08:07;7.88;;;3.80;;
77430;SDS011;66498;48.564;19.272;2023-07-08T08:10:34;6.18;;;3.60;;
77430;SDS011;66498;48.564;19.272;2023-07-08T08:13:00;8.50;;;4.10;;
77430;SDS011;66498;48.564;19.272;2023-07-08T08:15:26;6.93;;;3.60;;
77430;SDS011;66498;48.564;19.272;2023-07-08T08:17:52;7.85;;;4.00;;
77430;SDS011;66498;48.564;19.272;2023-07-08T08:20:22;5.78;;;3.33;;
77430;SDS011;66498;48.564;19.272;2023-07-08T08:27:51;4.95;;;3.05;;
77430;SDS011;66498;48.564;19.272;2023-07-08T08:51:09;5.55;;;3.25;;
77430;SDS011;66498;48.564;19.272;2023-07-08T11:35:20;2.50;;;1.95;;
77430;SDS011;66498;48.564;19.272;2023-07-08T11:37:52;2.85;;;2.00;;
77430;SDS011;66498;48.564;19.272;2023-07-08T11:42:59;3.30;;;2.25;;
77430;SDS011;66498;48.564;19.272;2023-07-08T12:49:02;2.45;;;2.10;;
77430;SDS011;66498;48.564;19.272;2023-07-08T12:51:28;6.30;;;2.30;;
77430;SDS011;66498;48.564;19.272;2023-07-08T12:53:54;3.45;;;2.00;;
77430;SDS011;66498;48.564;19.272;2023-07-08T12:56:21;3.70;;;2.25;;
77430;SDS011;66498;48.564;19.272;2023-07-08T12:58:49;2.55;;;1.90;;
77430;SDS011;66498;48.564;19.272;2023-07-08T13:01:28;3.97;;;2.40;;
77430;SDS011;66498;48.564;19.272;2023-07-08T13:04:03;3.08;;;2.20;;
77430;SDS011;66498;48.564;19.272;2023-07-08T13:06:33;2.22;;;1.98;;
77430;SDS011;66498;48.564;19.272;2023-07-08T13:09:07;2.85;;;2.10;;
77430;SDS011;66498;48.564;19.272;2023-07-08T13:11:41;2.80;;;2.00;;
77430;SDS011;66498;48.564;19.272;2023-07-08T13:14:07;4.38;;;2.10;;
77430;SDS011;66498;48.564;19.272;2023-07-08T13:16:34;2.17;;;1.83;;
77430;SDS011;66498;48.564;19.272;2023-07-08T13:19:01;2.95;;;2.00;;
77430;SDS011;66498;48.564;19.272;2023-07-08T13:21:27;3.42;;;2.10;;
77430;SDS011;66498;48.564;19.272;2023-07-08T13:23:55;3.25;;;2.10;;
77430;SDS011;66498;48.564;19.272;2023-07-08T13:26:23;3.30;;;2.20;;
77430;SDS011;66498;48.564;19.272;2023-07-08T13:29:04;3.55;;;2.00;;
77430;SDS011;66498;48.564;19.272;2023-07-08T13:31:37;2.40;;;2.10;;
77430;SDS011;66498;48.564;19.272;2023-07-08T13:34:15;2.88;;;2.05;;
77430;SDS011;66498;48.564;19.272;2023-07-08T13:36:44;5.03;;;2.10;;
77430;SDS011;66498;48.564;19.272;2023-07-08T13:39:15;3.30;;;2.17;;
77430;SDS011;66498;48.564;19.272;2023-07-08T13:41:45;3.78;;;2.28;;
77430;SDS011;66498;48.564;19.272;2023-07-08T13:44:11;2.83;;;2.00;;
77430;SDS011;66498;48.564;19.272;2023-07-08T13:46:38;2.78;;;2.13;;
77430;SDS011;66498;48.564;19.272;2023-07-08T13:49:23;4.25;;;2.03;;
77430;SDS011;66498;48.564;19.272;2023-07-08T13:52:08;2.90;;;1.90;;
77430;SDS011;66498;48.564;19.272;2023-07-08T13:54:52;2.65;;;2.05;;
77430;SDS011;66498;48.564;19.272;2023-07-08T13:57:27;2.83;;;2.33;;
77430;SDS011;66498;48.564;19.272;2023-07-08T14:00:05;2.45;;;2.10;;
77430;SDS011;66498;48.564;19.272;2023-07-08T14:02:32;4.55;;;2.50;;
77430;SDS011;66498;48.564;19.272;2023-07-08T14:05:00;2.97;;;2.08;;
77430;SDS011;66498;48.564;19.272;2023-07-08T14:07:29;2.45;;;2.05;;
77430;SDS011;66498;48.564;19.272;2023-07-08T14:09:57;4.03;;;2.10;;
77430;SDS011;66498;48.564;19.272;2023-07-08T14:12:23;3.33;;;2.03;;
77430;SDS011;66498;48.564;19.272;2023-07-08T14:14:49;3.25;;;2.33;;
77430;SDS011;66498;48.564;19.272;2023-07-08T14:17:27;2.75;;;2.03;;
77430;SDS011;66498;48.564;19.272;2023-07-08T14:20:12;4.40;;;2.10;;
77430;SDS011;66498;48.564;19.272;2023-07-08T14:22:42;3.53;;;2.25;;
77430;SDS011;66498;48.564;19.272;2023-07-08T14:25:09;4.75;;;2.25;;
77430;SDS011;66498;48.564;19.272;2023-07-08T14:27:35;4.28;;;2.20;;
77430;SDS011;66498;48.564;19.272;2023-07-08T15:14:31;2.50;;;2.10;;
77430;SDS011;66498;48.564;19.272;2023-07-08T15:17:02;2.63;;;2.20;;
77430;SDS011;66498;48.564;19.272;2023-07-08T15:19:30;3.97;;;2.50;;
77430;SDS011;66498;48.564;19.272;2023-07-08T15:22:00;3.28;;;2.30;;
77430;SDS011;66498;48.564;19.272;2023-07-08T15:24:28;3.15;;;2.40;;
77430;SDS011;66498;48.564;19.272;2023-07-08T15:26:53;2.72;;;2.30;;
77430;SDS011;66498;48.564;19.272;2023-07-08T15:47:42;3.13;;;2.30;;
77430;SDS011;66498;48.564;19.272;2023-07-08T15:50:09;3.35;;;2.83;;
77430;SDS011;66498;48.564;19.272;2023-07-08T15:52:36;4.15;;;2.50;;
77430;SDS011;66498;48.564;19.272;2023-07-08T15:55:01;3.70;;;2.50;;
77430;SDS011;66498;48.564;19.272;2023-07-08T15:57:27;2.90;;;2.50;;
77430;SDS011;66498;48.564;19.272;2023-07-08T15:59:53;5.63;;;2.55;;
77430;SDS011;66498;48.564;19.272;2023-07-08T16:41:12;11.45;;;3.20;;
77430;SDS011;66498;48.564;19.272;2023-07-08T16:43:47;4.72;;;2.85;;
77430;SDS011;66498;48.564;19.272;2023-07-08T16:46:14;5.45;;;2.88;;
77430;SDS011;66498;48.564;19.272;2023-07-08T16:48:42;3.72;;;3.03;;
77430;SDS011;66498;48.564;19.272;2023-07-08T16:51:18;4.53;;;2.80;;
77430;SDS011;66498;48.564;19.272;2023-07-08T16:53:47;3.00;;;2.70;;
77430;SDS011;66498;48.564;19.272;2023-07-08T16:56:17;4.10;;;2.88;;
77430;SDS011;66498;48.564;19.272;2023-07-08T17:01:19;3.55;;;3.00;;
77430;SDS011;66498;48.564;19.272;2023-07-08T17:29:42;3.38;;;2.80;;
77430;SDS011;66498;48.564;19.272;2023-07-08T17:32:32;4.97;;;2.72;;
77430;SDS011;66498;48.564;19.272;2023-07-08T17:35:12;3.03;;;2.72;;
77430;SDS011;66498;48.564;19.272;2023-07-08T17:37:52;4.07;;;3.23;;
77430;SDS011;66498;48.564;19.272;2023-07-08T17:40:46;6.10;;;3.60;;
77430;SDS011;66498;48.564;19.272;2023-07-08T17:43:13;5.35;;;3.42;;
77430;SDS011;66498;48.564;19.272;2023-07-08T17:45:40;5.68;;;3.38;;
77430;SDS011;66498;48.564;19.272;2023-07-08T17:48:29;4.50;;;3.15;;
77430;SDS011;66498;48.564;19.272;2023-07-08T17:50:57;5.72;;;3.35;;
77430;SDS011;66498;48.564;19.272;2023-07-08T17:53:49;6.38;;;3.10;;
77430;SDS011;66498;48.564;19.272;2023-07-08T17:56:26;4.57;;;3.25;;
77430;SDS011;66498;48.564;19.272;2023-07-08T17:59:23;5.15;;;3.10;;
77430;SDS011;66498;48.564;19.272;2023-07-08T18:01:54;5.85;;;3.25;;
77430;SDS011;66498;48.564;19.272;2023-07-08T18:04:41;4.15;;;3.17;;
77430;SDS011;66498;48.564;19.272;2023-07-08T18:07:07;3.80;;;2.83;;
77430;SDS011;66498;48.564;19.272;2023-07-08T18:09:50;4.55;;;2.95;;
77430;SDS011;66498;48.564;19.272;2023-07-08T18:12:23;4.40;;;2.90;;
77430;SDS011;66498;48.564;19.272;2023-07-08T18:14:48;4.03;;;2.90;;
77430;SDS011;66498;48.564;19.272;2023-07-08T18:17:26;4.47;;;3.03;;
77430;SDS011;66498;48.564;19.272;2023-07-08T18:19:57;4.10;;;3.20;;
77430;SDS011;66498;48.564;19.272;2023-07-08T18:22:28;4.95;;;3.20;;
77430;SDS011;66498;48.564;19.272;2023-07-08T18:24:56;3.85;;;3.00;;
77430;SDS011;66498;48.564;19.272;2023-07-08T18:27:25;4.85;;;2.95;;
77430;SDS011;66498;48.564;19.272;2023-07-08T18:30:03;5.20;;;3.30;;
77430;SDS011;66498;48.564;19.272;2023-07-08T18:35:50;6.03;;;3.20;;
77430;SDS011;66498;48.564;19.272;2023-07-08T18:38:17;15.15;;;4.50;;
77430;SDS011;66498;48.564;19.272;2023-07-08T18:40:44;5.75;;;3.35;;
77430;SDS011;66498;48.564;19.272;2023-07-08T18:43:13;6.40;;;4.13;;
77430;SDS011;66498;48.564;19.272;2023-07-08T18:45:50;5.13;;;3.42;;
77430;SDS011;66498;48.564;19.272;2023-07-08T18:48:18;5.15;;;3.90;;
77430;SDS011;66498;48.564;19.272;2023-07-08T18:50:52;5.70;;;3.90;;
77430;SDS011;66498;48.564;19.272;2023-07-08T18:53:20;5.35;;;3.90;;
77430;SDS011;66498;48.564;19.272;2023-07-08T18:55:51;6.05;;;3.97;;
77430;SDS011;66498;48.564;19.272;2023-07-08T18:58:29;7.15;;;3.90;;
77430;SDS011;66498;48.564;19.272;2023-07-08T19:00:55;9.38;;;4.57;;
77430;SDS011;66498;48.564;19.272;2023-07-08T19:03:27;7.65;;;4.30;;
77430;SDS011;66498;48.564;19.272;2023-07-08T19:06:18;5.40;;;3.75;;
77430;SDS011;66498;48.564;19.272;2023-07-08T19:08:45;5.30;;;3.75;;
77430;SDS011;66498;48.564;19.272;2023-07-08T19:11:17;7.20;;;4.70;;
77430;SDS011;66498;48.564;19.272;2023-07-08T19:13:45;6.80;;;3.90;;
77430;SDS011;66498;48.564;19.272;2023-07-08T19:16:13;5.15;;;4.05;;
77430;SDS011;66498;48.564;19.272;2023-07-08T19:18:46;5.83;;;4.03;;
77430;SDS011;66498;48.564;19.272;2023-07-08T19:21:17;5.10;;;3.88;;
77430;SDS011;66498;48.564;19.272;2023-07-08T19:23:46;6.00;;;3.65;;
77430;SDS011;66498;48.564;19.272;2023-07-08T19:26:16;5.72;;;3.80;;
77430;SDS011;66498;48.564;19.272;2023-07-08T19:28:47;6.40;;;4.10;;
77430;SDS011;66498;48.564;19.272;2023-07-08T19:31:22;7.10;;;4.57;;
77430;SDS011;66498;48.564;19.272;2023-07-08T19:33:51;5.68;;;4.03;;
77430;SDS011;66498;48.564;19.272;2023-07-08T19:36:18;6.93;;;4.57;;
77430;SDS011;66498;48.564;19.272;2023-07-08T19:38:45;5.03;;;3.90;;
77430;SDS011;66498;48.564;19.272;2023-07-08T19:41:12;6.68;;;4.22;;
77430;SDS011;66498;48.564;19.272;2023-07-08T19:43:39;5.22;;;4.22;;
77430;SDS011;66498;48.564;19.272;2023-07-08T19:46:08;5.93;;;4.20;;
77430;SDS011;66498;48.564;19.272;2023-07-08T19:48:38;8.82;;;4.40;;
77430;SDS011;66498;48.564;19.272;2023-07-08T19:51:05;5.43;;;4.00;;
77430;SDS011;66498;48.564;19.272;2023-07-08T19:53:31;6.32;;;4.05;;
77430;SDS011;66498;48.564;19.272;2023-07-08T19:55:56;6.55;;;4.55;;
77430;SDS011;66498;48.564;19.272;2023-07-08T19:58:22;8.38;;;4.35;;
77430;SDS011;66498;48.564;19.272;2023-07-08T20:00:48;6.63;;;4.43;;
77430;SDS011;66498;48.564;19.272;2023-07-08T20:03:15;6.30;;;4.22;;
77430;SDS011;66498;48.564;19.272;2023-07-08T20:05:41;5.68;;;4.13;;
77430;SDS011;66498;48.564;19.272;2023-07-08T20:10:56;5.55;;;4.65;;
77430;SDS011;66498;48.564;19.272;2023-07-08T20:13:28;6.75;;;4.97;;
77430;SDS011;66498;48.564;19.272;2023-07-08T20:15:56;7.55;;;4.90;;
77430;SDS011;66498;48.564;19.272;2023-07-08T20:18:28;6.30;;;5.00;;
77430;SDS011;66498;48.564;19.272;2023-07-08T20:20:56;6.55;;;4.95;;
77430;SDS011;66498;48.564;19.272;2023-07-08T20:23:26;7.28;;;4.88;;
77430;SDS011;66498;48.564;19.272;2023-07-08T20:25:53;7.50;;;4.90;;
77430;SDS011;66498;48.564;19.272;2023-07-08T20:28:20;7.18;;;5.40;;
77430;SDS011;66498;48.564;19.272;2023-07-08T20:30:52;5.70;;;5.00;;
77430;SDS011;66498;48.564;19.272;2023-07-08T20:33:23;7.50;;;5.13;;
77430;SDS011;66498;48.564;19.272;2023-07-08T20:36:54;6.20;;;4.97;;
77430;SDS011;66498;48.564;19.272;2023-07-08T21:30:18;12.32;;;7.05;;
77430;SDS011;66498;48.564;19.272;2023-07-08T22:47:59;15.90;;;9.20;;
77430;SDS011;66498;48.564;19.272;2023-07-08T22:59:02;7.78;;;5.50;;
77430;SDS011;66498;48.564;19.272;2023-07-08T23:01:30;10.05;;;6.00;;
77430;SDS011;66498;48.564;19.272;2023-07-08T23:03:55;9.77;;;6.63;;
77430;SDS011;66498;48.564;19.272;2023-07-08T23:06:23;7.68;;;5.95;;
77430;SDS011;66498;48.564;19.272;2023-07-08T23:08:51;8.30;;;5.95;;
77430;SDS011;66498;48.564;19.272;2023-07-08T23:11:21;6.97;;;5.57;;
77430;SDS011;66498;48.564;19.272;2023-07-08T23:13:48;7.88;;;5.82;;
77430;SDS011;66498;48.564;19.272;2023-07-08T23:19:01;7.80;;;5.78;;
77430;SDS011;66498;48.564;19.272;2023-07-08T23:21:29;7.20;;;5.68;;
77430;SDS011;66498;48.564;19.272;2023-07-08T23:23:56;8.07;;;5.82;;
77430;SDS011;66498;48.564;19.272;2023-07-08T23:26:33;10.98;;;5.85;;
77430;SDS011;66498;48.564;19.272;2023-07-08T23:29:08;10.00;;;6.22;;
77430;SDS011;66498;48.564;19.272;2023-07-08T23:31:44;7.65;;;6.22;;
77430;SDS011;66498;48.564;19.272;2023-07-08T23:36:51;8.77;;;6.40;;
77430;SDS011;66498;48.564;19.272;2023-07-08T23:39:20;8.27;;;6.30;;
77430;SDS011;66498;48.564;19.272;2023-07-08T23:42:07;9.18;;;6.38;;
77430;SDS011;66498;48.564;19.272;2023-07-08T23:44:40;8.30;;;6.30;;
77430;SDS011;66498;48.564;19.272;2023-07-08T23:47:15;8.65;;;7.05;;
77430;SDS011;66498;48.564;19.272;2023-07-08T23:49:50;10.60;;;7.10;;
77430;SDS011;66498;48.564;19.272;2023-07-08T23:52:16;9.50;;;6.65;;
77430;SDS011;66498;48.564;19.272;2023-07-08T23:54:45;10.45;;;6.35;;
77430;SDS011;66498;48.564;19.272;2023-07-08T23:57:17;9.27;;;6.70;;
77430;SDS011;66498;48.564;19.272;2023-07-08T23:59:51;9.30;;;6.68;;
